21:17
Airports
History
Links
Donate
Help keep this website running!
PayPal
Bitcoin
This page is community maintained. The information is intended for PC simulator navigation or reference.
Always use approved charts for navigation.
VERC
BIRSA MUNDA
BIRSA MUNDA (VERC)
Ranchi, Jharkhand, India (834003)
(C)
Lat/Lng:23° 18' 52.81" N / 85° 19' 18.03" E
23.314669 / 85.321675
Elevation:2148'ft / 655mMSL
ID / ICAO:VERC
Runways:1
Longest:13-31
Asphalt 2,704m / 8,870ft
Controlled:Yes
METAR18:00 GMT 2017-11-19
Altimeter: 30.03
Visibility: 2.2 statute miles
Wind: 0 knots (from 000°)
Temp: 20°c / 68°f
Humidity: 82.9%

METAR: VERC 191800Z 00000KT 3500 HZ NSC 20/17 Q1017 NOSIG

(Powered by phpweather)
Airport Radio Frequencies
Tower: 122.3
Nearby VORs <50NM
Nearby NDBs
Runway 13 / 31
Dimensions:2703.7 x 45.1m 8870' x 148'ft
Surface:Asphalt
Edge Lights:High intensity
Runway 13 [A]Runway 31 [B]
Heading:130°TH 310°TH
Lat:
Lng:
23° 19' 21.11"N
85° 18' 41.75"E
23° 18' 24.5"N
85° 19' 54.31"E
ALS:SALSSALS
User Notes and Comments
23° 18' 52.81" N / 85° 19' 18.03" E
Distance To
Airport ID:
Nearby Airports
(U) BOKARO 57.1 NM
VEBK ENE 66°
(C) JAMSHEDPUR 64.0 NM
VEJS ( WX ) ESE 122°
(U) DHANBAD 78.6 NM
VEDB ENE 62°
(U) ROURKELA 79.9 NM
VERK SSW 203°
(U) GIRIDIH 86.6 NM
VE41 NE 44°
(U) DALTONGANJ 91.6 NM
VE54 WNW 302°
(C) GAYA 101.5 NM
VEGY ( WX ) NNW 346°
VFR Chart
Flight Planning at SkyVector.com